createdAt,value
2018-04-11T00:00:41.029Z,0
2018-04-11T00:01:49.103Z,0
2018-04-11T00:02:57.173Z,0
2018-04-11T00:04:05.237Z,0
2018-04-11T00:05:13.291Z,0
2018-04-11T00:06:21.315Z,0
2018-04-11T00:07:29.402Z,0
2018-04-11T00:08:37.468Z,0
2018-04-11T00:09:45.526Z,0
2018-04-11T00:10:53.577Z,0
2018-04-11T00:12:01.617Z,0
2018-04-11T00:13:09.712Z,0
2018-04-11T00:14:17.759Z,0
2018-04-11T00:15:25.821Z,0
2018-04-11T00:16:33.873Z,0
2018-04-11T00:17:41.936Z,0
2018-04-11T00:18:49.997Z,0
2018-04-11T00:19:58.055Z,0
2018-04-11T00:21:06.120Z,0
2018-04-11T00:22:14.175Z,0
2018-04-11T00:23:22.238Z,0
2018-04-11T00:24:30.291Z,0
2018-04-11T00:25:38.353Z,0
2018-04-11T00:26:46.448Z,0
2018-04-11T00:27:54.475Z,0
2018-04-11T00:29:02.532Z,0
2018-04-11T00:30:10.592Z,0
2018-04-11T00:31:18.674Z,0
2018-04-11T00:32:26.703Z,0
2018-04-11T00:33:34.754Z,0
2018-04-11T00:34:42.823Z,0
2018-04-11T00:35:50.851Z,0
2018-04-11T00:36:58.939Z,0
2018-04-11T00:38:06.976Z,0
2018-04-11T00:39:15.055Z,0
2018-04-11T00:40:23.104Z,0
2018-04-11T00:41:31.133Z,0
2018-04-11T00:42:39.239Z,0
2018-04-11T00:43:47.273Z,0
2018-04-11T00:44:55.331Z,0
2018-04-11T00:46:03.396Z,0
2018-04-11T00:47:11.421Z,0
2018-04-11T00:48:19.515Z,0
2018-04-11T00:49:27.577Z,0
2018-04-11T00:50:35.632Z,0
2018-04-11T00:51:43.682Z,0
2018-04-11T00:52:51.727Z,0
2018-04-11T00:53:59.859Z,0
2018-04-11T00:55:07.868Z,0
2018-04-11T00:56:15.934Z,0
2018-04-11T00:57:23.974Z,0
2018-04-11T00:58:32.042Z,0
2018-04-11T00:59:40.095Z,0
2018-04-11T01:00:48.150Z,0
2018-04-11T01:01:56.211Z,0
2018-04-11T01:03:04.272Z,0
2018-04-11T01:04:12.324Z,0
2018-04-11T01:05:20.387Z,0
2018-04-11T01:06:28.439Z,0
2018-04-11T01:07:36.510Z,0
2018-04-11T01:08:44.560Z,0
2018-04-11T01:09:52.605Z,0
2018-04-11T01:11:00.675Z,0
2018-04-11T01:12:08.750Z,0
2018-04-11T01:13:16.784Z,0
2018-04-11T01:14:24.859Z,0
2018-04-11T01:15:32.903Z,0
2018-04-11T01:16:40.959Z,0
2018-04-11T01:17:49.035Z,0
2018-04-11T01:18:57.076Z,0
2018-04-11T01:20:05.130Z,0
2018-04-11T01:21:13.198Z,0
2018-04-11T01:22:21.233Z,0
2018-04-11T01:23:29.330Z,0
2018-04-11T01:24:37.377Z,0
2018-04-11T01:25:45.440Z,0
2018-04-11T01:26:53.499Z,0
2018-04-11T01:28:01.517Z,0
2018-04-11T01:29:09.597Z,0
2018-04-11T01:30:17.678Z,0
2018-04-11T01:31:25.727Z,0
2018-04-11T01:32:33.788Z,0
2018-04-11T01:33:41.837Z,0
2018-04-11T01:34:49.892Z,0
2018-04-11T01:35:57.955Z,0
2018-04-11T01:37:06.011Z,0
2018-04-11T01:38:14.077Z,0
2018-04-11T01:39:22.131Z,0
2018-04-11T01:40:30.186Z,0
2018-04-11T01:41:38.248Z,0
2018-04-11T01:42:46.304Z,0
2018-04-11T01:43:54.370Z,0
2018-04-11T01:45:02.421Z,0
2018-04-11T01:46:10.468Z,0
2018-04-11T01:47:18.532Z,0
2018-04-11T01:48:26.610Z,0
2018-04-11T01:49:34.651Z,0
2018-04-11T01:50:42.707Z,0
2018-04-11T01:51:50.762Z,0
2018-04-11T01:52:58.836Z,0
2018-04-11T01:54:06.902Z,0
2018-04-11T01:55:14.939Z,0
2018-04-11T01:56:23.009Z,0
2018-04-11T01:57:31.029Z,0
2018-04-11T01:58:39.126Z,0
2018-04-11T01:59:47.181Z,0
2018-04-11T02:00:55.227Z,0
2018-04-11T02:02:03.292Z,0
2018-04-11T02:03:11.328Z,0
2018-04-11T02:04:19.404Z,0
2018-04-11T02:05:27.482Z,0
2018-04-11T02:06:35.527Z,0
2018-04-11T02:07:43.609Z,0
2018-04-11T02:08:51.613Z,0
2018-04-11T02:09:59.692Z,0
2018-04-11T02:11:07.759Z,0
2018-04-11T02:12:15.819Z,0
2018-04-11T02:13:23.888Z,0
2018-04-11T02:14:31.940Z,0
2018-04-11T02:15:40.003Z,0
2018-04-11T02:16:48.053Z,0
2018-04-11T02:17:56.109Z,0
2018-04-11T02:19:04.170Z,0
2018-04-11T02:20:12.218Z,0
2018-04-11T02:21:20.287Z,0
2018-04-11T02:22:28.326Z,0
2018-04-11T02:23:36.409Z,0
2018-04-11T02:24:44.462Z,0
2018-04-11T02:25:52.515Z,0
2018-04-11T02:27:00.571Z,0
2018-04-11T02:28:08.636Z,0
2018-04-11T02:29:16.692Z,0
2018-04-11T02:30:24.741Z,0
2018-04-11T02:31:32.809Z,0
2018-04-11T02:32:40.849Z,0
2018-04-11T02:33:48.934Z,0
2018-04-11T02:34:56.981Z,0
2018-04-11T02:36:05.031Z,0
2018-04-11T02:37:13.096Z,0
2018-04-11T02:38:21.136Z,0
2018-04-11T02:39:29.220Z,0
2018-04-11T02:40:37.278Z,0
2018-04-11T02:41:45.346Z,0
2018-04-11T02:42:53.393Z,0
2018-04-11T02:44:01.425Z,0
2018-04-11T02:45:09.502Z,0
2018-04-11T02:46:17.571Z,0
2018-04-11T02:47:25.634Z,0
2018-04-11T02:48:33.674Z,0
2018-04-11T02:49:41.720Z,0
2018-04-11T02:50:49.790Z,0
2018-04-11T02:51:57.857Z,0
2018-04-11T02:53:05.907Z,0
2018-04-11T02:54:13.953Z,0
2018-04-11T02:55:22.017Z,0
2018-04-11T02:56:30.085Z,0
2018-04-11T02:57:38.135Z,0
2018-04-11T02:58:46.203Z,0
2018-04-11T02:59:54.253Z,0
2018-04-11T03:01:02.308Z,0
2018-04-11T03:02:10.384Z,0
2018-04-11T03:03:18.422Z,0
2018-04-11T03:04:26.484Z,0
2018-04-11T03:05:34.555Z,0
2018-04-11T03:06:42.605Z,0
2018-04-11T03:07:50.664Z,0
2018-04-11T03:08:58.727Z,0
2018-04-11T03:10:06.793Z,0
2018-04-11T03:11:14.835Z,0
2018-04-11T03:12:22.892Z,0
2018-04-11T03:13:30.922Z,0
2018-04-11T03:14:39.021Z,0
2018-04-11T03:15:47.071Z,0
2018-04-11T03:16:55.126Z,0
2018-04-11T03:18:03.186Z,0
2018-04-11T03:19:11.226Z,0
2018-04-11T03:20:19.305Z,0
2018-04-11T03:21:27.361Z,0
2018-04-11T03:22:35.412Z,0
2018-04-11T03:23:43.486Z,0
2018-04-11T03:24:51.501Z,0
2018-04-11T03:25:59.583Z,0
2018-04-11T03:27:07.643Z,0
2018-04-11T03:28:15.709Z,0
2018-04-11T03:29:23.765Z,0
2018-04-11T03:30:31.816Z,0
2018-04-11T03:31:39.869Z,0
2018-04-11T03:32:47.939Z,0
2018-04-11T03:33:55.987Z,0
2018-04-11T03:35:04.040Z,0
2018-04-11T03:36:12.104Z,0
2018-04-11T03:37:20.173Z,0
2018-04-11T03:38:28.213Z,0
2018-04-11T03:39:36.273Z,0
2018-04-11T03:40:44.346Z,0
2018-04-11T03:41:52.397Z,0
2018-04-11T03:43:00.473Z,0
2018-04-11T03:44:08.518Z,0
2018-04-11T03:45:16.577Z,0
2018-04-11T03:46:24.633Z,0
2018-04-11T03:47:32.687Z,0
2018-04-11T03:48:40.735Z,0
2018-04-11T03:49:48.813Z,0
2018-04-11T03:50:56.864Z,0
2018-04-11T03:52:05.037Z,0
2018-04-11T03:53:12.969Z,0
2018-04-11T03:54:21.000Z,0
2018-04-11T03:55:29.099Z,0
2018-04-11T03:56:37.145Z,0
2018-04-11T03:57:45.214Z,0
2018-04-11T03:58:53.267Z,0
2018-04-11T04:00:01.292Z,0
2018-04-11T04:01:09.378Z,0
2018-04-11T04:02:17.438Z,0
2018-04-11T04:03:25.502Z,0
2018-04-11T04:04:33.552Z,0
2018-04-11T04:05:41.575Z,0
2018-04-11T04:06:49.662Z,0
2018-04-11T04:07:57.719Z,0
2018-04-11T04:09:05.786Z,0
2018-04-11T04:10:13.837Z,0
2018-04-11T04:11:21.905Z,0
2018-04-11T04:12:29.959Z,0
2018-04-11T04:13:38.017Z,0
2018-04-11T04:14:46.072Z,0
2018-04-11T04:15:54.142Z,0
2018-04-11T04:17:02.181Z,0
2018-04-11T04:18:10.249Z,0
2018-04-11T04:19:18.304Z,0
2018-04-11T04:20:26.355Z,0
2018-04-11T04:21:34.419Z,0
2018-04-11T04:22:42.481Z,0
2018-04-11T04:23:50.548Z,0
2018-04-11T04:24:58.602Z,0
2018-04-11T04:26:06.646Z,0
2018-04-11T04:27:14.721Z,0
2018-04-11T04:28:22.762Z,0
2018-04-11T04:29:30.821Z,0
2018-04-11T04:30:38.875Z,0
2018-04-11T04:31:46.966Z,0
2018-04-11T04:32:54.993Z,0
2018-04-11T04:34:03.069Z,0
2018-04-11T04:35:11.097Z,0
2018-04-11T04:36:19.187Z,0
2018-04-11T04:37:27.244Z,5
2018-04-11T04:38:35.307Z,5
2018-04-11T04:39:43.366Z,5
2018-04-11T04:40:51.402Z,5
2018-04-11T04:41:59.533Z,5
2018-04-11T04:43:07.538Z,5
2018-04-11T04:44:15.599Z,10
2018-04-11T04:45:23.997Z,10
2018-04-11T04:46:31.693Z,10
2018-04-11T04:47:39.773Z,10
2018-04-11T04:48:47.862Z,10
2018-04-11T04:49:55.946Z,15
2018-04-11T04:51:03.955Z,15
2018-04-11T04:52:12.003Z,15
2018-04-11T04:53:20.068Z,20
2018-04-11T04:54:28.123Z,20
2018-04-11T04:55:36.727Z,20
2018-04-11T04:56:44.843Z,25
2018-04-11T04:57:52.616Z,25
2018-04-11T04:59:00.450Z,25
2018-04-11T05:00:08.417Z,30
2018-04-11T05:01:16.479Z,30
2018-04-11T05:02:24.547Z,30
2018-04-11T05:03:33.082Z,30
2018-04-11T05:04:40.851Z,35
2018-04-11T05:05:48.884Z,35
2018-04-11T05:06:56.861Z,35
2018-04-11T05:08:04.833Z,40
2018-04-11T05:09:12.881Z,40
2018-04-11T05:10:20.922Z,40
2018-04-11T05:11:29.647Z,45
2018-04-11T05:12:37.070Z,45
2018-04-11T05:13:45.123Z,45
2018-04-11T05:14:53.177Z,50
2018-04-11T05:16:01.210Z,50
2018-04-11T05:17:09.310Z,50
2018-04-11T05:18:17.349Z,55
2018-04-11T05:19:25.414Z,55
2018-04-11T05:20:33.468Z,55
2018-04-11T05:21:41.511Z,55
2018-04-11T05:22:49.599Z,60
2018-04-11T05:23:57.651Z,60
2018-04-11T05:25:05.931Z,60
2018-04-11T05:26:13.783Z,65
2018-04-11T05:27:21.819Z,65
2018-04-11T05:28:29.878Z,65
2018-04-11T05:29:37.948Z,65
2018-04-11T05:30:46.014Z,70
2018-04-11T05:31:54.067Z,95
2018-04-11T05:33:02.136Z,110
2018-04-11T05:34:10.184Z,95
2018-04-11T05:35:18.280Z,75
2018-04-11T05:36:26.305Z,75
2018-04-11T05:37:34.358Z,75
2018-04-11T05:38:42.419Z,80
2018-04-11T05:39:50.483Z,80
2018-04-11T05:40:58.536Z,85
2018-04-11T05:42:06.604Z,85
2018-04-11T05:43:14.654Z,90
2018-04-11T05:44:22.715Z,90
2018-04-11T05:45:30.760Z,90
2018-04-11T05:46:38.823Z,95
2018-04-11T05:47:46.897Z,95
2018-04-11T05:48:54.956Z,95
2018-04-11T05:50:03.018Z,100
2018-04-11T05:51:11.036Z,100
2018-04-11T05:52:19.156Z,110
2018-04-11T05:53:27.228Z,125
2018-04-11T05:54:35.247Z,120
2018-04-11T05:55:43.304Z,125
2018-04-11T05:56:51.341Z,125
2018-04-11T05:57:59.439Z,135
2018-04-11T05:59:07.471Z,140
2018-04-11T06:00:15.547Z,140
2018-04-11T06:01:23.607Z,140
2018-04-11T06:02:31.651Z,155
2018-04-11T06:03:39.727Z,150
2018-04-11T06:04:47.793Z,150
2018-04-11T06:05:55.899Z,165
2018-04-11T06:07:03.926Z,170
2018-04-11T06:08:11.974Z,160
2018-04-11T06:09:20.050Z,160
2018-04-11T06:10:28.104Z,150
2018-04-11T06:11:36.166Z,145
2018-04-11T06:12:44.211Z,155
2018-04-11T06:13:52.278Z,155
2018-04-11T06:15:00.339Z,145
2018-04-11T06:16:08.417Z,145
2018-04-11T06:17:16.467Z,165
2018-04-11T06:18:24.535Z,175
2018-04-11T06:19:32.586Z,170
2018-04-11T06:20:40.658Z,175
2018-04-11T06:21:48.718Z,170
2018-04-11T06:22:56.828Z,150
2018-04-11T06:24:04.834Z,150
2018-04-11T06:25:12.910Z,155
2018-04-11T06:26:20.938Z,165
2018-04-11T06:27:29.036Z,165
2018-04-11T06:28:37.096Z,160
2018-04-11T06:29:45.170Z,165
2018-04-11T06:30:53.248Z,165
2018-04-11T06:32:01.264Z,170
2018-04-11T06:33:09.345Z,160
2018-04-11T06:34:17.405Z,170
2018-04-11T06:35:25.473Z,175
2018-04-11T06:36:33.542Z,170
2018-04-11T06:37:41.588Z,160
2018-04-11T06:38:49.676Z,155
2018-04-11T06:39:57.733Z,170
2018-04-11T06:41:05.806Z,180
2018-04-11T06:42:16.151Z,185
2018-04-11T06:43:21.940Z,180
2018-04-11T06:44:30.009Z,195
2018-04-11T06:45:38.061Z,190
2018-04-11T06:46:46.125Z,185
2018-04-11T06:47:54.188Z,185
2018-04-11T06:49:02.248Z,155
2018-04-11T06:50:10.312Z,150
2018-04-11T06:51:18.384Z,175
2018-04-11T06:52:26.453Z,180
2018-04-11T06:53:34.512Z,190
2018-04-11T06:54:42.580Z,190
2018-04-11T06:55:50.655Z,170
2018-04-11T06:56:58.711Z,180
2018-04-11T06:58:06.769Z,180
2018-04-11T06:59:14.837Z,155
2018-04-11T07:00:22.901Z,200
2018-04-11T07:01:30.965Z,230
2018-04-11T07:02:39.043Z,230
2018-04-11T07:03:47.121Z,270
2018-04-11T07:04:55.167Z,305
2018-04-11T07:06:03.242Z,320
2018-04-11T07:07:11.279Z,350
2018-04-11T07:08:19.368Z,375
2018-04-11T07:09:27.437Z,395
2018-04-11T07:10:35.499Z,385
2018-04-11T07:11:43.563Z,275
2018-04-11T07:12:51.618Z,155
2018-04-11T07:13:59.707Z,150
2018-04-11T07:15:07.777Z,150
2018-04-11T07:16:15.842Z,155
2018-04-11T07:17:23.899Z,155
2018-04-11T07:18:32.005Z,155
2018-04-11T07:19:40.051Z,155
2018-04-11T07:20:48.121Z,150
2018-04-11T07:21:56.179Z,150
2018-04-11T07:23:04.249Z,155
2018-04-11T07:24:12.306Z,220
2018-04-11T07:25:20.388Z,290
2018-04-11T07:26:28.464Z,285
2018-04-11T07:27:36.509Z,365
2018-04-11T07:28:44.591Z,400
2018-04-11T07:29:52.646Z,315
2018-04-11T07:31:00.708Z,190
2018-04-11T07:32:08.792Z,160
2018-04-11T07:33:16.861Z,200
2018-04-11T07:34:24.941Z,280
2018-04-11T07:35:32.992Z,295
2018-04-11T07:36:41.029Z,330
2018-04-11T07:37:49.133Z,300
2018-04-11T07:38:57.193Z,265
2018-04-11T07:40:05.301Z,235
2018-04-11T07:41:13.341Z,240
2018-04-11T07:42:21.379Z,235
2018-04-11T07:43:29.479Z,210
2018-04-11T07:44:37.548Z,265
2018-04-11T07:45:45.616Z,330
2018-04-11T07:46:53.685Z,390
2018-04-11T07:48:01.770Z,365
2018-04-11T07:49:09.823Z,335
2018-04-11T07:50:17.895Z,310
2018-04-11T07:51:25.969Z,250
2018-04-11T07:52:34.037Z,355
2018-04-11T07:53:42.089Z,420
2018-04-11T07:54:50.160Z,430
2018-04-11T07:55:58.252Z,490
2018-04-11T07:57:06.316Z,505
2018-04-11T07:58:14.381Z,430
2018-04-11T07:59:22.458Z,440
2018-04-11T08:00:30.534Z,545
2018-04-11T08:01:38.597Z,435
2018-04-11T08:02:46.663Z,265
2018-04-11T08:03:54.744Z,265
2018-04-11T08:05:02.828Z,195
2018-04-11T08:06:10.860Z,200
2018-04-11T08:07:18.959Z,215
2018-04-11T08:08:27.037Z,220
2018-04-11T08:09:35.109Z,225
2018-04-11T08:10:43.179Z,220
2018-04-11T08:11:51.215Z,220
2018-04-11T08:12:59.316Z,220
2018-04-11T08:14:07.397Z,220
2018-04-11T08:15:15.458Z,245
2018-04-11T08:16:23.530Z,250
2018-04-11T08:17:31.582Z,235
2018-04-11T08:18:39.674Z,220
2018-04-11T08:19:47.743Z,205
2018-04-11T08:20:55.804Z,215
2018-04-11T08:22:03.883Z,245
2018-04-11T08:23:11.979Z,225
2018-04-11T08:24:20.042Z,215
2018-04-11T08:25:28.107Z,190
2018-04-11T08:26:36.177Z,215
2018-04-11T08:27:44.262Z,230
2018-04-11T08:28:52.328Z,205
2018-04-11T08:30:00.397Z,195
2018-04-11T08:31:08.465Z,220
2018-04-11T08:32:16.545Z,235
2018-04-11T08:33:24.603Z,245
2018-04-11T08:34:32.690Z,250
2018-04-11T08:35:40.742Z,250
2018-04-11T08:36:48.833Z,255
2018-04-11T08:37:56.896Z,250
2018-04-11T08:39:04.967Z,240
2018-04-11T08:40:13.048Z,235
2018-04-11T08:41:21.094Z,215
2018-04-11T08:42:29.185Z,220
2018-04-11T08:43:37.267Z,215
2018-04-11T08:44:45.336Z,200
2018-04-11T08:45:53.405Z,195
2018-04-11T08:47:01.464Z,160
2018-04-11T08:48:09.550Z,165
2018-04-11T08:49:17.619Z,170
2018-04-11T08:50:25.708Z,160
2018-04-11T08:51:33.766Z,160
2018-04-11T08:52:41.868Z,160
2018-04-11T08:53:49.914Z,160
2018-04-11T08:54:57.989Z,170
2018-04-11T08:56:06.072Z,175
2018-04-11T08:57:14.127Z,185
2018-04-11T08:58:22.204Z,185
2018-04-11T08:59:30.268Z,185
2018-04-11T09:00:38.383Z,185
2018-04-11T09:01:46.404Z,190
2018-04-11T09:02:54.496Z,205
2018-04-11T09:04:02.563Z,215
2018-04-11T09:05:10.639Z,225
2018-04-11T09:06:18.699Z,230
2018-04-11T09:07:26.773Z,240
2018-04-11T09:08:34.846Z,245
2018-04-11T09:09:42.902Z,255
2018-04-11T09:10:50.947Z,265
2018-04-11T09:11:59.045Z,270
2018-04-11T09:13:07.110Z,290
2018-04-11T09:14:15.193Z,300
2018-04-11T09:15:23.254Z,310
2018-04-11T09:16:31.307Z,320
2018-04-11T09:17:39.411Z,330
2018-04-11T09:18:47.461Z,345
2018-04-11T09:19:55.531Z,350
2018-04-11T09:21:03.596Z,360
2018-04-11T09:22:11.648Z,375
2018-04-11T09:23:19.717Z,385
2018-04-11T09:24:27.796Z,400
2018-04-11T09:25:35.878Z,400
2018-04-11T09:26:43.952Z,400
2018-04-11T09:27:52.011Z,400
2018-04-11T09:29:00.085Z,405
2018-04-11T09:30:08.140Z,405
2018-04-11T09:31:16.217Z,400
2018-04-11T09:32:24.281Z,390
2018-04-11T09:33:32.355Z,380
2018-04-11T09:34:40.408Z,365
2018-04-11T09:35:48.497Z,355
2018-04-11T09:36:56.562Z,345
2018-04-11T09:38:04.626Z,340
2018-04-11T09:39:12.694Z,335
2018-04-11T09:40:20.759Z,330
2018-04-11T09:41:28.830Z,325
2018-04-11T09:42:36.908Z,325
2018-04-11T09:43:44.984Z,320
2018-04-11T09:44:53.046Z,315
2018-04-11T09:46:01.084Z,305
2018-04-11T09:47:09.171Z,290
2018-04-11T09:48:17.247Z,285
2018-04-11T09:49:25.320Z,295
2018-04-11T09:50:33.369Z,305
2018-04-11T09:51:41.431Z,310
2018-04-11T09:52:49.522Z,320
2018-04-11T09:53:57.595Z,335
2018-04-11T09:55:05.676Z,345
2018-04-11T09:56:13.721Z,355
2018-04-11T09:57:21.785Z,360
2018-04-11T09:58:29.859Z,365
2018-04-11T09:59:37.938Z,370
2018-04-11T10:00:45.995Z,360
2018-04-11T10:01:54.082Z,350
2018-04-11T10:03:02.141Z,340
2018-04-11T10:04:10.204Z,330
2018-04-11T10:05:18.269Z,325
2018-04-11T10:06:26.343Z,310
2018-04-11T10:07:34.426Z,300
2018-04-11T10:08:42.487Z,285
2018-04-11T10:09:50.553Z,270
2018-04-11T10:10:58.611Z,260
2018-04-11T10:12:06.693Z,245
2018-04-11T10:13:14.768Z,240
2018-04-11T10:14:22.821Z,225
2018-04-11T10:15:30.871Z,215
2018-04-11T10:16:38.972Z,210
2018-04-11T10:17:47.030Z,205
2018-04-11T10:18:55.100Z,195
2018-04-11T10:20:03.168Z,190
2018-04-11T10:21:11.221Z,185
2018-04-11T10:22:19.307Z,180
2018-04-11T10:23:27.384Z,175
2018-04-11T10:24:35.502Z,170
2018-04-11T10:25:43.519Z,165
2018-04-11T10:26:51.543Z,165
2018-04-11T10:27:59.655Z,160
2018-04-11T10:29:07.721Z,160
2018-04-11T10:30:15.780Z,160
2018-04-11T10:31:23.849Z,155
2018-04-11T10:32:31.925Z,155
2018-04-11T10:33:39.987Z,150
2018-04-11T10:34:48.114Z,150
2018-04-11T10:35:56.127Z,150
2018-04-11T10:37:04.194Z,150
2018-04-11T10:38:12.256Z,150
2018-04-11T10:39:20.327Z,145
2018-04-11T10:40:28.396Z,145
2018-04-11T10:41:36.453Z,145
2018-04-11T10:42:44.531Z,145
2018-04-11T10:43:52.621Z,145
2018-04-11T10:45:00.668Z,150
2018-04-11T10:46:08.784Z,150
2018-04-11T10:47:16.801Z,150
2018-04-11T10:48:24.883Z,145
2018-04-11T10:49:32.945Z,150
2018-04-11T10:50:40.981Z,145
2018-04-11T10:51:49.078Z,150
2018-04-11T10:52:57.138Z,145
2018-04-11T10:54:05.206Z,145
2018-04-11T10:55:13.287Z,145
2018-04-11T10:56:21.314Z,145
2018-04-11T10:57:29.428Z,145
2018-04-11T10:58:37.489Z,145
2018-04-11T10:59:45.542Z,145
2018-04-11T11:00:53.662Z,145
2018-04-11T11:02:01.675Z,145
2018-04-11T11:03:09.765Z,145
2018-04-11T11:04:17.808Z,145
2018-04-11T11:05:25.902Z,140
2018-04-11T11:06:33.958Z,140
2018-04-11T11:07:42.004Z,145
2018-04-11T11:08:50.105Z,155
2018-04-11T11:09:58.189Z,185
2018-04-11T11:11:06.240Z,210
2018-04-11T11:12:14.304Z,180
2018-04-11T11:13:22.363Z,150
2018-04-11T11:14:30.437Z,145
2018-04-11T11:15:38.517Z,145
2018-04-11T11:16:46.572Z,145
2018-04-11T11:17:54.640Z,145
2018-04-11T11:19:02.722Z,150
2018-04-11T11:20:10.769Z,155
2018-04-11T11:21:18.847Z,150
2018-04-11T11:22:26.916Z,150
2018-04-11T11:23:34.979Z,145
2018-04-11T11:24:43.042Z,145
2018-04-11T11:25:51.100Z,150
2018-04-11T11:26:59.193Z,150
2018-04-11T11:28:07.252Z,155
2018-04-11T11:29:15.328Z,155
2018-04-11T11:30:23.393Z,155
2018-04-11T11:31:31.440Z,160
2018-04-11T11:32:39.511Z,180
2018-04-11T11:33:47.600Z,180
2018-04-11T11:34:55.671Z,175
2018-04-11T11:36:03.713Z,185
2018-04-11T11:37:11.801Z,210
2018-04-11T11:38:19.875Z,215
2018-04-11T11:39:27.949Z,200
2018-04-11T11:40:36.013Z,195
2018-04-11T11:41:44.086Z,200
2018-04-11T11:42:52.173Z,200
2018-04-11T11:44:00.202Z,210
2018-04-11T11:45:08.299Z,215
2018-04-11T11:46:16.348Z,220
2018-04-11T11:47:24.464Z,210
2018-04-11T11:48:32.490Z,200
2018-04-11T11:49:40.539Z,200
2018-04-11T11:50:48.624Z,195
2018-04-11T11:51:56.691Z,195
2018-04-11T11:53:04.772Z,195
2018-04-11T11:54:12.834Z,195
2018-04-11T11:55:20.907Z,195
2018-04-11T11:56:28.975Z,200
2018-04-11T11:57:37.037Z,200
2018-04-11T11:58:45.102Z,215
2018-04-11T11:59:53.184Z,235
2018-04-11T12:01:01.223Z,195
2018-04-11T12:02:09.305Z,180
2018-04-11T12:03:17.390Z,175
2018-04-11T12:04:25.450Z,180
2018-04-11T12:05:33.515Z,175
2018-04-11T12:06:41.562Z,175
2018-04-11T12:07:49.634Z,170
2018-04-11T12:08:57.709Z,170
2018-04-11T12:10:05.790Z,170
2018-04-11T12:11:13.872Z,175
2018-04-11T12:12:21.940Z,185
2018-04-11T12:13:30.001Z,200
2018-04-11T12:14:38.071Z,220
2018-04-11T12:15:46.140Z,225
2018-04-11T12:16:54.212Z,220
2018-04-11T12:18:02.275Z,205
2018-04-11T12:19:10.363Z,195
2018-04-11T12:20:18.428Z,190
2018-04-11T12:21:26.488Z,185
2018-04-11T12:22:34.662Z,190
2018-04-11T12:23:42.628Z,195
2018-04-11T12:24:50.690Z,210
2018-04-11T12:26:00.985Z,230
2018-04-11T12:27:06.842Z,235
2018-04-11T12:28:14.902Z,235
2018-04-11T12:29:22.973Z,230
2018-04-11T12:30:31.049Z,210
2018-04-11T12:31:39.120Z,205
2018-04-11T12:32:47.186Z,185
2018-04-11T12:33:55.248Z,175
2018-04-11T12:35:03.299Z,165
2018-04-11T12:36:11.357Z,160
2018-04-11T12:37:19.503Z,160
2018-04-11T12:38:27.516Z,160
2018-04-11T12:39:35.607Z,165
2018-04-11T12:40:43.664Z,185
2018-04-11T12:41:51.709Z,175
2018-04-11T12:42:59.799Z,205
2018-04-11T12:44:07.876Z,210
2018-04-11T12:45:15.952Z,200
2018-04-11T12:46:24.050Z,200
2018-04-11T12:47:32.094Z,185
2018-04-11T12:48:40.151Z,195
2018-04-11T12:49:48.210Z,225
2018-04-11T12:50:56.282Z,255
2018-04-11T12:52:04.354Z,315
2018-04-11T12:53:12.425Z,325
2018-04-11T12:54:20.493Z,285
2018-04-11T12:55:28.556Z,260
2018-04-11T12:56:36.636Z,250
2018-04-11T12:57:44.712Z,255
2018-04-11T12:58:52.774Z,245
2018-04-11T13:00:00.823Z,235
2018-04-11T13:01:08.942Z,220
2018-04-11T13:02:16.969Z,215
2018-04-11T13:03:25.047Z,220
2018-04-11T13:04:33.186Z,225
2018-04-11T13:05:41.152Z,230
2018-04-11T13:06:49.264Z,245
2018-04-11T13:07:57.326Z,245
2018-04-11T13:09:05.392Z,255
2018-04-11T13:10:13.471Z,250
2018-04-11T13:11:21.508Z,245
2018-04-11T13:12:29.608Z,245
2018-04-11T13:13:37.698Z,250
2018-04-11T13:14:45.740Z,265
2018-04-11T13:15:53.882Z,270
2018-04-11T13:17:01.883Z,280
2018-04-11T13:18:09.967Z,300
2018-04-11T13:19:18.013Z,325
2018-04-11T13:20:26.076Z,330
2018-04-11T13:21:34.167Z,335
2018-04-11T13:22:42.250Z,340
2018-04-11T13:23:50.299Z,330
2018-04-11T13:24:58.357Z,320
2018-04-11T13:26:06.444Z,305
2018-04-11T13:27:14.513Z,310
2018-04-11T13:28:22.572Z,315
2018-04-11T13:29:30.650Z,315
2018-04-11T13:30:38.706Z,310
2018-04-11T13:31:46.794Z,315
2018-04-11T13:32:54.857Z,315
2018-04-11T13:34:02.931Z,310
2018-04-11T13:35:10.968Z,290
2018-04-11T13:36:19.072Z,270
2018-04-11T13:37:27.140Z,260
2018-04-11T13:38:35.319Z,255
2018-04-11T13:39:43.272Z,265
2018-04-11T13:40:51.331Z,275
2018-04-11T13:41:59.411Z,255
2018-04-11T13:43:07.478Z,235
2018-04-11T13:44:15.531Z,225
2018-04-11T13:45:23.627Z,220
2018-04-11T13:46:31.671Z,230
2018-04-11T13:47:39.761Z,235
2018-04-11T13:48:47.822Z,235
2018-04-11T13:49:55.910Z,225
2018-04-11T13:51:03.975Z,215
2018-04-11T13:52:12.026Z,215
2018-04-11T13:53:20.110Z,200
2018-04-11T13:54:28.175Z,190
2018-04-11T13:55:36.244Z,175
2018-04-11T13:56:44.303Z,170
2018-04-11T13:57:52.391Z,175
2018-04-11T13:59:00.476Z,175
2018-04-11T14:00:08.551Z,180
2018-04-11T14:01:16.589Z,190
2018-04-11T14:02:24.647Z,205
2018-04-11T14:03:32.714Z,235
2018-04-11T14:04:40.790Z,265
2018-04-11T14:05:48.873Z,310
2018-04-11T14:06:56.927Z,355
2018-04-11T14:08:05.024Z,375
2018-04-11T14:09:13.080Z,385
2018-04-11T14:10:21.112Z,375
2018-04-11T14:11:29.202Z,350
2018-04-11T14:12:37.266Z,310
2018-04-11T14:13:45.341Z,280
2018-04-11T14:14:53.416Z,270
2018-04-11T14:16:01.450Z,275
2018-04-11T14:17:09.551Z,300
2018-04-11T14:18:17.614Z,320
2018-04-11T14:19:25.708Z,330
2018-04-11T14:20:33.758Z,330
2018-04-11T14:21:41.829Z,305
2018-04-11T14:22:49.910Z,300
2018-04-11T14:23:57.966Z,295
2018-04-11T14:25:06.017Z,285
2018-04-11T14:26:14.113Z,285
2018-04-11T14:27:22.170Z,270
2018-04-11T14:28:30.244Z,235
2018-04-11T14:29:38.355Z,200
2018-04-11T14:30:46.420Z,190
2018-04-11T14:31:54.447Z,175
2018-04-11T14:33:02.516Z,170
2018-04-11T14:34:10.599Z,165
2018-04-11T14:35:18.663Z,165
2018-04-11T14:36:26.740Z,160
2018-04-11T14:37:34.795Z,155
2018-04-11T14:38:42.871Z,155
2018-04-11T14:39:50.933Z,140
2018-04-11T14:40:59.012Z,150
2018-04-11T14:42:07.078Z,150
2018-04-11T14:43:15.153Z,155
2018-04-11T14:44:23.226Z,155
2018-04-11T14:45:31.255Z,155
2018-04-11T14:46:39.377Z,155
2018-04-11T14:47:47.414Z,145
2018-04-11T14:48:55.514Z,160
2018-04-11T14:50:03.565Z,160
2018-04-11T14:51:11.623Z,165
2018-04-11T14:52:19.709Z,175
2018-04-11T14:53:27.774Z,180
2018-04-11T14:54:35.845Z,180
2018-04-11T14:55:43.904Z,180
2018-04-11T14:56:51.971Z,185
2018-04-11T14:58:00.043Z,190
2018-04-11T14:59:08.119Z,190
2018-04-11T15:00:16.215Z,190
2018-04-11T15:01:24.251Z,185
2018-04-11T15:02:32.332Z,190
2018-04-11T15:03:40.395Z,195
2018-04-11T15:04:48.461Z,215
2018-04-11T15:05:56.532Z,235
2018-04-11T15:07:04.604Z,250
2018-04-11T15:08:12.660Z,260
2018-04-11T15:09:20.723Z,275
2018-04-11T15:10:28.803Z,290
2018-04-11T15:11:36.887Z,300
2018-04-11T15:12:44.948Z,310
2018-04-11T15:13:53.024Z,320
2018-04-11T15:15:01.059Z,330
2018-04-11T15:16:09.155Z,325
2018-04-11T15:17:17.224Z,325
2018-04-11T15:18:25.290Z,320
2018-04-11T15:19:33.355Z,315
2018-04-11T15:20:41.404Z,320
2018-04-11T15:21:49.492Z,320
2018-04-11T15:22:57.571Z,320
2018-04-11T15:24:05.654Z,320
2018-04-11T15:25:13.713Z,315
2018-04-11T15:26:21.768Z,315
2018-04-11T15:27:29.874Z,315
2018-04-11T15:28:37.905Z,320
2018-04-11T15:29:45.973Z,320
2018-04-11T15:30:54.039Z,310
2018-04-11T15:32:02.114Z,305
2018-04-11T15:33:10.205Z,300
2018-04-11T15:34:18.269Z,295
2018-04-11T15:35:26.325Z,285
2018-04-11T15:36:34.399Z,275
2018-04-11T15:37:42.463Z,265
2018-04-11T15:38:50.536Z,255
2018-04-11T15:39:58.604Z,240
2018-04-11T15:41:06.692Z,230
2018-04-11T15:42:14.732Z,220
2018-04-11T15:43:22.812Z,210
2018-04-11T15:44:30.864Z,210
2018-04-11T15:45:38.929Z,205
2018-04-11T15:46:46.998Z,210
2018-04-11T15:47:55.082Z,220
2018-04-11T15:49:03.155Z,225
2018-04-11T15:50:11.199Z,230
2018-04-11T15:51:19.296Z,235
2018-04-11T15:52:27.367Z,235
2018-04-11T15:53:35.429Z,235
2018-04-11T15:54:43.497Z,235
2018-04-11T15:55:51.539Z,240
2018-04-11T15:56:59.642Z,235
2018-04-11T15:58:07.714Z,230
2018-04-11T15:59:15.780Z,230